x

9441102 - Westport, Wa (wptw1) Weather Station

10:30am - Mon 24th Apr 2017 All times are PDT. -7 hours from GMT.

  • Wind
    14mph, 18mph gusts
  • Sea Temp 52°f
  • Air Temp 46°f
  • Sea Pressure 1006.1mb
  • 9441102 - Westport, Wa
  • 9441102 - Westport, Wa

More Historic Weather Station data

Upgrade to MSW Pro to gain access to the past 30 days of data for over 8000 Wavebouys and Weather Stations around the globe.

Join Pro

Comparision Forecast

View Surf forecast
   
Mon 04/24 10:30am 14 18 mph 1006.1mb 52f 46f
10:24am 14 18 mph 1006mb 52f 46f
10:18am 16 18 mph 1005.9mb 52f 46f
10:12am 11 17 mph 1005.9mb 52f 46f
10:06am 11 16 mph 1005.8mb 52f 46f
10:00am 14 17 mph 1005.7mb 52f 45f
9:36am 13 18 mph 1005.5mb 52f 45f
9:30am 13 17 mph 1005.5mb 52f 45f
9:24am 14 17 mph 1005.5mb 52f 45f
9:18am 13 17 mph 1005.5mb 52f 45f
9:12am 14 17 mph 1005.5mb 52f 45f
9:06am 14 18 mph 1005.4mb 52f 45f
9:00am 15 18 mph 1005.5mb 52f 45f
8:36am 14 20 mph 1005.4mb 52f 45f
8:30am 16 21 mph 1005.4mb 52f 45f
8:24am 15 21 mph 1005.3mb 52f 45f
8:18am 17 21 mph 1005.3mb 52f 45f
8:12am 17 22 mph 1005.3mb 52f 45f
8:06am 17 22 mph 1005.3mb 52f 45f
8:00am 18 23 mph 1005.2mb 52f 45f
7:36am 20 24 mph 1005.2mb 52f 45f
7:30am 18 23 mph 1005.1mb 52f 45f
7:24am 16 21 mph 1005.1mb 52f 45f
7:18am 17 23 mph 1005.2mb 52f 45f
7:12am 18 23 mph 1005.1mb 52f 45f
7:06am 17 22 mph 1005.1mb 52f 45f
7:00am 17 22 mph 1005mb 52f 45f
6:36am 17 22 mph 1004.9mb 52f 44f
6:30am 16 20 mph 1005mb 52f 44f
6:24am 14 17 mph 1004.9mb 52f 44f
6:18am 11 17 mph 1004.9mb 52f 44f
6:12am 14 17 mph 1004.9mb 52f 44f
6:06am 13 17 mph 1004.9mb 52f 44f
6:00am 14 18 mph 1004.9mb 52f 44f
5:36am 13 17 mph 1005.2mb 52f 44f
5:30am 11 15 mph 1005.2mb 52f 44f
5:24am 11 15 mph 1005.3mb 52f 44f
5:18am 11 14 mph 1005.4mb 52f 44f
5:12am 11 15 mph 1005.5mb 52f 44f
5:06am 9 15 mph 1005.5mb 52f 44f
5:00am 11 16 mph 1005.5mb 52f 44f
4:36am 11 16 mph 1005.8mb 52f 44f
4:30am 11 16 mph 1005.8mb 52f 44f
4:24am 11 15 mph 1005.9mb 52f 44f
4:18am 10 15 mph 1005.9mb 52f 44f
4:12am 11 14 mph 1006mb 52f 44f
4:06am 9 13 mph 1006mb 52f 44f
4:00am 10 14 mph 1006mb 52f 44f
3:36am 10 14 mph 1006.2mb 52f 44f
3:30am 11 15 mph 1006.3mb 52f 44f
3:24am 9 13 mph 1006.3mb 52f 44f
3:18am 10 13 mph 1006.4mb 52f 44f
3:12am 9 13 mph 1006.5mb 52f 45f
3:06am 9 11 mph 1006.5mb 52f 45f
3:00am 8 11 mph 1006.6mb 52f 45f
2:36am 8 10 mph 1006.7mb 52f 45f
2:30am 8 13 mph 1006.8mb 52f 45f
2:24am 9 13 mph 1006.9mb 52f 45f
2:18am 7 8 mph 1007mb 52f 45f
2:12am 8 10 mph 1007mb 52f 45f
2:06am 7 9 mph 1007.1mb 52f 45f
2:00am 6 9 mph 1007.1mb 52f 45f
1:36am 7 9 mph 1007.4mb 52f 46f
1:30am 6 11 mph 1007.4mb 52f 46f
1:24am 6 9 mph 1007.5mb 52f 46f
1:18am 7 11 mph 1007.6mb 52f 46f
1:12am 9 15 mph 1007.6mb 52f 46f
1:06am 9 14 mph 1007.7mb 52f 46f
1:00am 8 14 mph 1007.7mb 52f 46f
12:36am 10 17 mph 1007.8mb 52f 47f
12:30am 11 16 mph 1007.8mb 52f 46f
12:24am 8 11 mph 1007.8mb 52f 46f
12:18am 7 11 mph 1007.9mb 52f 46f
12:12am 10 16 mph 1008mb 52f 47f
12:06am 10 15 mph 1008mb 52f 46f
12:00am 11 17 mph 1008.1mb 52f 46f
Sun 04/23 11:36pm 11 16 mph 1008.2mb 52f 47f
11:30pm 13 20 mph 1008.3mb 52f 46f
11:24pm 16 21 mph 1008.3mb 52f 47f
11:18pm 9 14 mph 1008.3mb 52f 48f
11:12pm 10 15 mph 1008.4mb 52f 48f
11:06pm 13 16 mph 1008.5mb 52f 48f
11:00pm 11 17 mph 1008.5mb 52f 48f
10:36pm 14 17 mph 1008.7mb 52f 48f
10:30pm 14 17 mph 1008.7mb 53f 48f
10:24pm 11 16 mph 1008.8mb 53f 48f
10:18pm 11 20 mph 1008.9mb 53f 48f
10:12pm 15 20 mph 1008.9mb 53f 48f
10:06pm 14 17 mph 1008.9mb 53f 48f
10:00pm 10 14 mph 1009mb 53f 48f
9:36pm 11 18 mph 1009.2mb 53f 47f
9:30pm 13 18 mph 1009.1mb 53f 47f
9:24pm 11 15 mph 1009.1mb 53f 47f
9:18pm 13 18 mph 1009.1mb 53f 47f
9:12pm 11 16 mph 1009.2mb 53f 47f
9:06pm 14 18 mph 1009.2mb 53f 47f
9:00pm 15 20 mph 1009.1mb 53f 47f
8:36pm 14 18 mph 1009mb 53f 48f
8:30pm 15 22 mph 1009.1mb 53f 48f
8:24pm 15 20 mph 1009.1mb 53f 48f
8:18pm 16 21 mph 1009.2mb 53f 48f
8:12pm 14 17 mph 1009.2mb 53f 47f
8:06pm 13 18 mph 1009.2mb 53f 47f
8:00pm 13 16 mph 1009.2mb 53f 47f
7:36pm 14 18 mph 1009.2mb 53f 47f
7:30pm 13 16 mph 1009.2mb 53f 47f
7:24pm 16 23 mph 1009.3mb 53f 46f
7:18pm 23 29 mph 1009.2mb 53f 47f
7:12pm 14 20 mph 1009.2mb 53f 49f
7:06pm 17 22 mph 1009.3mb 53f 48f
7:00pm 17 21 mph 1009.4mb 53f 48f
6:36pm 16 20 mph 1009.6mb 53f 48f
6:30pm 16 20 mph 1009.6mb 53f 48f
6:24pm 16 22 mph 1009.7mb 53f 47f
6:18pm 16 23 mph 1009.7mb 53f 48f
6:12pm 17 22 mph 1009.8mb 53f 48f
6:06pm 14 22 mph 1009.8mb 53f 48f
6:00pm 13 17 mph 1009.8mb 53f 47f
5:36pm 15 22 mph 1010mb 53f 47f
5:30pm 16 22 mph 1010mb 53f 47f
5:24pm 16 21 mph 1010mb 53f 47f
5:18pm 16 22 mph 1010.1mb 53f 48f
5:12pm 15 23 mph 1010.1mb 53f 48f
5:06pm 13 21 mph 1010.1mb 53f 48f
5:00pm 16 21 mph 1010.2mb 53f 47f
4:36pm 17 23 mph 1010.2mb 53f 48f
4:30pm 17 23 mph 1010.2mb 53f 49f
4:24pm 18 24 mph 1010.2mb 53f 49f
4:18pm 16 21 mph 1010.3mb 53f 48f
4:12pm 17 22 mph 1010.3mb 53f 49f
4:06pm 15 22 mph 1010.4mb 53f 49f
4:00pm 18 23 mph 1010.4mb 53f 48f
3:36pm 20 26 mph 1010.5mb 53f 48f
3:30pm 17 24 mph 1010.4mb 53f 49f
3:24pm 15 21 mph 1010.5mb 53f 49f
3:18pm 14 21 mph 1010.4mb 53f 49f
3:12pm 14 21 mph 1010.5mb 53f 49f
3:06pm 14 21 mph 1010.5mb 53f 49f
3:00pm 16 20 mph 1010.5mb 53f 49f
2:36pm 14 17 mph 1010.5mb 53f 48f
2:30pm 14 20 mph 1010.6mb 53f 47f
2:24pm 15 20 mph 1010.6mb 53f 47f
2:18pm 14 20 mph 1010.7mb 53f 48f
2:12pm 16 20 mph 1010.6mb 53f 48f
2:06pm 16 20 mph 1010.6mb 53f 48f
2:00pm 14 18 mph 1010.6mb 53f 48f
1:36pm 14 20 mph 1010.5mb 52f 48f
1:30pm 18 22 mph 1010.5mb 52f 48f
1:24pm 17 22 mph 1010.6mb 52f 48f
1:18pm 18 23 mph 1010.6mb 52f 48f
1:12pm 20 23 mph 1010.5mb 53f 48f
1:06pm 21 24 mph 1010.4mb 52f 48f
1:00pm 17 22 mph 1010.4mb 52f 48f
12:36pm 13 16 mph 1010.4mb 52f 48f
12:30pm 13 17 mph 1010.4mb 52f 48f
12:24pm 16 21 mph 1010.4mb 52f 48f
12:18pm 17 24 mph 1010.4mb 52f 48f
12:12pm 18 25 mph 1010.3mb 52f 49f
12:06pm 17 23 mph 1010.4mb 52f 48f
12:00pm 16 23 mph 1010.4mb 52f 48f
11:36am 15 23 mph 1010.3mb 52f 49f
11:30am 15 24 mph 1010.3mb 52f 49f
11:24am 14 20 mph 1010.3mb 52f 49f
11:18am 15 21 mph 1010.3mb 52f 49f
11:12am 14 25 mph 1010.3mb 52f 49f
11:06am 17 23 mph 1010.4mb 52f 49f
11:00am 15 23 mph 1010.4mb 52f 49f
10:36am 10 18 mph 1010.4mb 52f 48f
10:30am 14 22 mph 1010.4mb 52f 49f
10:24am 16 23 mph 1010.3mb 53f 49f
10:18am 13 18 mph 1010.4mb 53f 48f
10:12am 9 15 mph 1010.2mb 53f 48f
10:06am 9 18 mph 1010.3mb 53f 48f
10:00am 9 17 mph 1010.4mb 53f 48f
9:36am 10 15 mph 1010.3mb 53f 48f
9:30am 11 15 mph 1010.3mb 53f 48f
9:24am 10 14 mph 1010.3mb 53f 48f
9:18am 14 18 mph 1010.3mb 53f 47f
9:12am 11 14 mph 1010.3mb 53f 47f
9:06am 8 9 mph 1010.4mb 53f 47f
9:00am 8 11 mph 1010.4mb 53f 47f
8:36am 10 14 mph 1010.7mb 53f 47f
8:30am 10 13 mph 1010.8mb 53f 47f
8:24am 10 15 mph 1010.8mb 53f 47f
8:18am 9 11 mph 1010.9mb 53f 48f
8:12am 10 13 mph 1011mb 53f 48f
8:06am 10 13 mph 1011mb 53f 48f
8:00am 9 11 mph 1011mb 53f 48f
7:36am 11 14 mph 1011.2mb 53f 48f
7:30am 10 13 mph 1011.3mb 53f 48f
7:24am 10 14 mph 1011.3mb 53f 47f
7:18am 9 13 mph 1011.4mb 53f 47f
7:12am 9 13 mph 1011.4mb 53f 47f
7:06am 9 13 mph 1011.5mb 53f 47f
7:00am 8 13 mph 1011.5mb 53f 47f
6:36am 9 13 mph 1011.7mb 53f 47f
6:30am 7 11 mph 1011.8mb 53f 47f
6:24am 9 11 mph 1011.7mb 53f 47f
6:18am 9 11 mph 1011.8mb 53f 47f
6:12am 8 11 mph 1011.8mb 53f 47f
6:06am 8 13 mph 1011.8mb 53f 47f
6:00am 8 11 mph 1011.9mb 53f 48f
5:36am 7 10 mph 1012.1mb 53f 48f
5:30am 8 13 mph 1012.1mb 53f 48f
5:24am 6 8 mph 1012.2mb 53f 48f
5:18am 7 10 mph 1012.2mb 53f 48f
5:12am 7 11 mph 1012.3mb 53f 48f
5:06am 8 10 mph 1012.4mb 53f 48f
5:00am 7 9 mph 1012.4mb 53f 48f
4:36am 6 8 mph 1012.6mb 53f 48f
4:30am 6 8 mph 1012.6mb 53f 48f
4:24am 7 8 mph 1012.7mb 53f 48f
4:18am 5 8 mph 1012.7mb 53f 48f
4:12am 7 8 mph 1012.8mb 53f 48f
4:06am 7 8 mph 1012.9mb 53f 48f
4:00am 6 7 mph 1012.9mb 53f 48f
3:36am 6 9 mph 1013.2mb 53f 49f
3:30am 9 14 mph 1013.3mb 53f 49f
3:24am 7 11 mph 1013.4mb 53f 49f
3:18am 8 11 mph 1013.4mb 53f 49f
3:12am 7 13 mph 1013.5mb 53f 49f
3:06am 8 14 mph 1013.6mb 53f 49f
3:00am 7 11 mph 1013.6mb 53f 49f
2:36am 7 10 mph 1013.8mb 53f 49f
2:30am 8 13 mph 1013.9mb 53f 49f
2:24am 10 14 mph 1014mb 53f 49f
2:18am 9 11 mph 1014mb 53f 49f
2:12am 6 10 mph 1014.1mb 53f 49f
2:06am 8 13 mph 1014.1mb 53f 49f
2:00am 11 15 mph 1014.2mb 53f 49f
1:36am 11 14 mph 1014.2mb 53f 49f
1:30am 9 13 mph 1014.3mb 53f 50f
1:24am 11 14 mph 1014.3mb 53f 50f
1:18am 11 14 mph 1014.3mb 53f 50f
1:12am 10 14 mph 1014.3mb 53f 49f
1:06am 9 13 mph 1014.3mb 53f 49f
1:00am 8 11 mph 1014.3mb 53f 49f
12:36am 9 13 mph 1014.2mb 53f 49f
12:30am 10 15 mph 1014.2mb 53f 49f
12:24am 10 15 mph 1014.2mb 53f 49f
12:18am 9 14 mph 1014.2mb 53f 49f
12:12am 10 14 mph 1014.3mb 53f 49f
12:06am 11 15 mph 1014.3mb 53f 49f
12:00am 10 16 mph 1014.3mb 53f 48f
Sat 04/22 11:36pm 10 15 mph 1014.5mb 53f 49f
11:30pm 14 17 mph 1014.5mb 53f 49f
11:24pm 11 15 mph 1014.5mb 53f 49f
11:18pm 9 13 mph 1014.5mb 53f 49f
11:12pm 10 14 mph 1014.4mb 53f 49f
11:06pm 10 14 mph 1014.4mb 53f 49f
11:00pm 9 15 mph 1014.4mb 53f 50f
10:36pm 13 16 mph 1014.5mb 53f 50f
10:30pm 11 15 mph 1014.5mb 53f 50f
10:24pm 13 16 mph 1014.6mb 53f 50f
10:18pm 13 17 mph 1014.6mb 53f 50f
10:12pm 10 20 mph 1014.5mb 53f 50f
10:06pm 13 18 mph 1014.5mb 53f 50f
10:00pm 11 18 mph 1014.5mb 53f 50f
9:36pm 11 17 mph 1014.4mb 53f 50f
9:30pm 13 20 mph 1014.3mb 53f 50f
9:24pm 14 18 mph 1014.2mb 53f 50f
9:18pm 13 18 mph 1014.2mb 53f 50f
9:12pm 16 20 mph 1014.2mb 53f 50f
9:06pm 14 18 mph 1014.1mb 53f 49f
9:00pm 14 18 mph 1014.1mb 53f 50f
8:36pm 15 22 mph 1013.9mb 53f 49f
8:30pm 16 23 mph 1013.8mb 53f 49f
8:24pm 17 25 mph 1013.8mb 53f 50f
8:18pm 17 22 mph 1013.7mb 53f 50f
8:12pm 14 18 mph 1013.7mb 53f 50f
8:06pm 16 20 mph 1013.7mb 53f 51f
8:00pm 16 23 mph 1013.7mb 53f 51f
7:36pm 15 20 mph 1013.7mb 53f 51f
7:30pm 15 22 mph 1013.6mb 53f 51f
7:24pm 16 20 mph 1013.6mb 53f 51f
7:18pm 14 21 mph 1013.6mb 53f 50f
7:12pm 13 18 mph 1013.6mb 53f 50f
7:06pm 15 18 mph 1013.6mb 53f 50f
7:00pm 16 21 mph 1013.5mb 53f 50f
6:36pm 16 21 mph 1013.4mb 53f 51f
6:30pm 18 25 mph 1013.4mb 53f 51f
6:24pm 18 25 mph 1013.4mb 53f 51f
6:18pm 18 25 mph 1013.4mb 53f 51f
6:12pm 17 25 mph 1013.4mb 53f 51f
6:06pm 18 25 mph 1013.4mb 53f 51f
6:00pm 17 23 mph 1013.4mb 53f 51f
5:36pm 17 25 mph 1013.4mb 53f 51f
5:30pm 20 24 mph 1013.3mb 53f 51f
5:24pm 20 25 mph 1013.4mb 53f 51f
5:18pm 18 26 mph 1013.3mb 53f 52f
5:12pm 22 29 mph 1013.3mb 53f 52f
5:06pm 21 28 mph 1013.3mb 53f 51f
5:00pm 20 26 mph 1013.2mb 53f 52f
4:36pm 20 26 mph 1013mb 53f 52f
4:30pm 22 28 mph 1013mb 53f 52f
4:24pm 18 26 mph 1012.9mb 53f 52f
4:18pm 20 29 mph 1012.9mb 53f 52f
4:12pm 20 26 mph 1012.8mb 53f 52f
4:06pm 20 28 mph 1012.8mb 53f 52f
4:00pm 20 26 mph 1012.7mb 53f 52f
3:36pm 20 25 mph 1012.4mb 53f 53f
3:30pm 18 29 mph 1012.4mb 53f 53f
3:24pm 21 29 mph 1012.4mb 53f 52f
3:18pm 22 32 mph 1012.3mb 53f 52f
3:12pm 21 31 mph 1012.2mb 53f 52f
3:06pm 21 30 mph 1012mb 53f 52f
3:00pm 22 26 mph 1011.9mb 53f 52f
2:36pm 18 26 mph 1011.6mb 53f 51f
2:30pm 18 28 mph 1011.5mb 53f 52f
2:24pm 20 26 mph 1011.3mb 53f 52f
2:18pm 21 30 mph 1011.2mb 53f 52f
2:12pm 23 31 mph 1011.1mb 53f 52f
2:06pm 22 31 mph 1010.9mb 53f 52f
2:00pm 21 30 mph 1010.8mb 53f 52f
1:36pm 23 31 mph 1010.3mb 53f 51f
1:30pm 22 32 mph 1010.1mb 53f 51f
1:24pm 22 28 mph 1009.9mb 53f 51f
1:18pm 21 29 mph 1009.8mb 53f 51f
1:12pm 14 22 mph 1009.7mb 53f 50f
1:06pm 13 22 mph 1009.6mb 52f 50f
1:00pm 13 21 mph 1009.5mb 53f 50f
12:36pm 14 26 mph 1009mb 52f 50f
12:30pm 15 22 mph 1009mb 52f 50f
12:24pm 13 18 mph 1009mb 52f 50f
12:18pm 11 20 mph 1008.9mb 52f 51f
12:12pm 11 23 mph 1008.7mb 53f 51f
12:06pm 15 22 mph 1008.7mb 53f 51f
12:00pm 15 22 mph 1008.7mb 53f 51f
11:36am 8 11 mph 1008.9mb 52f 50f
11:30am 9 11 mph 1008.8mb 52f 50f
11:24am 8 13 mph 1008.9mb 52f 50f
11:18am 9 11 mph 1009mb 52f 49f
11:12am 8 10 mph 1008.9mb 52f 49f
11:06am 7 10 mph 1008.9mb 52f 49f
11:00am 7 10 mph 1008.9mb 52f 49f
10:36am 7 10 mph 1009mb 52f 48f
10:30am 8 10 mph 1009.1mb 52f 48f
10:24am 9 11 mph 1009mb 52f 48f
10:18am 6 9 mph 1009mb 52f 48f
10:12am 5 11 mph 1008.9mb 52f 48f
10:06am 9 13 mph 1008.9mb 52f 48f
10:00am 8 13 mph 1008.8mb 52f 48f
9:36am 7 10 mph 1008.7mb 52f 48f
9:30am 8 11 mph 1008.9mb 52f 48f
9:24am 7 9 mph 1008.9mb 52f 48f
9:18am 8 13 mph 1008.9mb 52f 48f
9:12am 9 13 mph 1008.8mb 52f 48f
9:06am 13 16 mph 1009mb 52f 48f
9:00am 13 21 mph 1009mb 52f 49f
8:36am 14 18 mph 1009mb 52f 48f
8:30am 11 16 mph 1008.9mb 52f 48f
8:24am 11 16 mph 1008.7mb 52f 48f
8:18am 10 15 mph 1008.6mb 53f 47f
8:12am 10 17 mph 1009.1mb 53f 47f
8:06am 13 17 mph 1009.1mb 53f 48f
8:00am 16 24 mph 1009.1mb 53f 49f
7:36am 15 20 mph 1009mb 53f 51f
7:30am 13 17 mph 1008.8mb 53f 51f
7:24am 14 20 mph 1008.7mb 53f 52f
7:18am 15 22 mph 1008.5mb 53f 53f
7:12am 15 20 mph 1008.4mb 53f 54f
7:06am 15 23 mph 1008.2mb 53f 55f
7:00am 9 14 mph 1008mb 53f 55f
6:36am 10 14 mph 1007.5mb 53f 55f
6:30am 9 14 mph 1007.4mb 53f 55f
6:24am 11 13 mph 1007.2mb 53f 56f
6:18am 10 15 mph 1007.1mb 53f 56f
6:12am 10 14 mph 1007mb 53f 56f
6:06am 9 11 mph 1006.9mb 53f 56f
6:00am 9 15 mph 1006.9mb 53f 56f
5:36am 20 25 mph 1006.6mb 53f 56f
5:30am 21 28 mph 1006.7mb 53f 56f
5:24am 20 26 mph 1006.7mb 53f 56f
5:18am 22 29 mph 1006.5mb 53f 56f
5:12am 20 28 mph 1006.7mb 53f 56f
5:06am 21 25 mph 1007mb 53f 56f
5:00am 20 24 mph 1007.1mb 53f 56f
4:36am 16 25 mph 1007.4mb 53f 56f
4:30am 22 30 mph 1007.4mb 53f 56f
4:24am 24 28 mph 1007.3mb 53f 56f
4:18am 21 29 mph 1007.4mb 53f 56f
4:12am 24 30 mph 1007.6mb 53f 56f
4:06am 22 26 mph 1007.9mb 53f 56f
4:00am 21 26 mph 1008mb 53f 56f
3:36am 22 29 mph 1008.3mb 53f 56f
3:30am 21 25 mph 1008.4mb 53f 56f
3:24am 22 26 mph 1008.5mb 53f 56f
3:18am 20 28 mph 1008.6mb 53f 56f
3:12am 23 31 mph 1008.6mb 53f 56f
3:06am 18 28 mph 1008.8mb 53f 56f
3:00am 23 29 mph 1008.8mb 53f 56f
2:36am 22 29 mph 1009.3mb 53f 57f
2:30am 23 28 mph 1009.5mb 53f 57f
2:24am 21 25 mph 1009.7mb 53f 56f
2:18am 20 24 mph 1009.8mb 53f 56f
2:12am 22 26 mph 1009.8mb 53f 57f
2:06am 22 26 mph 1010mb 53f 57f
2:00am 22 25 mph 1010.1mb 53f 57f
1:36am 22 26 mph 1010.6mb 53f 57f
1:30am 22 28 mph 1010.9mb 53f 57f
1:24am 23 26 mph 1010.9mb 53f 57f
1:18am 22 28 mph 1011.1mb 53f 57f
1:12am 21 28 mph 1011.1mb 53f 57f
1:06am 23 28 mph 1011.1mb 53f 57f
1:00am 22 26 mph 1011.3mb 53f 56f
12:36am 18 23 mph 1011.7mb 53f 56f
12:30am 15 22 mph 1011.8mb 53f 56f
12:24am 17 23 mph 1011.9mb 53f 56f
12:18am 20 24 mph 1012mb 53f 57f
12:12am 22 25 mph 1012mb 53f 57f
12:06am 22 25 mph 1012.1mb 52f 57f
12:00am 23 28 mph 1012.1mb 52f 57f
Fri 04/21 11:36pm 24 29 mph 1012.4mb 52f 58f
11:30pm 22 31 mph 1012.6mb 52f 58f
11:24pm 22 30 mph 1012.7mb 52f 58f
11:18pm 25 32 mph 1012.7mb 52f 58f
11:12pm 25 32 mph 1012.8mb 52f 58f
11:06pm 26 30 mph 1013mb 52f 58f
11:00pm 22 30 mph 1013.1mb 52f 58f
10:36pm 23 29 mph 1013.7mb 52f 59f
10:30pm 17 23 mph 1013.9mb 52f 59f
10:24pm 20 25 mph 1013.9mb 52f 59f
10:18pm 18 23 mph 1013.9mb 52f 59f
10:12pm 18 28 mph 1013.8mb 52f 59f
10:06pm 21 33 mph 1013.9mb 52f 59f
10:00pm 24 31 mph 1014mb 52f 59f
9:36pm 18 22 mph 1014.4mb 52f 58f
9:30pm 17 21 mph 1014.5mb 52f 58f
9:24pm 14 22 mph 1014.6mb 52f 58f
9:18pm 17 22 mph 1014.6mb 52f 59f
9:12pm 17 21 mph 1014.8mb 52f 59f
9:06pm 16 20 mph 1014.9mb 52f 59f
9:00pm 15 20 mph 1014.9mb 53f 59f
8:36pm 14 21 mph 1015.3mb 53f 60f
8:30pm 17 22 mph 1015.3mb 53f 60f
8:24pm 17 21 mph 1015.3mb 53f 60f
8:18pm 17 21 mph 1015.5mb 53f 60f
8:12pm 17 23 mph 1015.7mb 53f 61f
8:06pm 20 24 mph 1015.8mb 53f 61f
8:00pm 17 23 mph 1015.8mb 53f 61f
7:36pm 15 21 mph 1016.3mb 54f 61f
7:30pm 16 20 mph 1016.3mb 54f 62f
7:24pm 17 21 mph 1016.4mb 54f 62f
7:18pm 16 21 mph 1016.5mb 54f 62f
7:12pm 16 21 mph 1016.6mb 54f 62f
7:06pm 16 22 mph 1016.7mb 54f 63f
7:00pm 15 20 mph 1016.9mb 55f 62f
6:36pm 14 18 mph 1017.5mb 54f 62f
6:30pm 15 20 mph 1017.6mb 54f 63f
6:24pm 17 22 mph 1017.6mb 54f 62f
6:18pm 17 23 mph 1017.7mb 54f 62f
6:12pm 20 23 mph 1017.8mb 54f 62f
6:06pm 18 25 mph 1017.9mb 54f 63f
6:00pm 20 23 mph 1018mb 54f 63f
5:36pm 18 24 mph 1018.4mb 54f 63f
5:30pm 18 23 mph 1018.5mb 54f 63f
5:24pm 14 20 mph 1018.6mb 54f 64f
5:18pm 17 22 mph 1018.7mb 54f 64f
5:12pm 16 22 mph 1018.8mb 54f 64f
5:06pm 14 22 mph 1018.9mb 54f 64f
5:00pm 15 23 mph 1019mb 54f 64f
4:36pm 13 18 mph 1019.3mb 54f 64f
4:30pm 14 21 mph 1019.4mb 54f 64f
4:24pm 17 26 mph 1019.4mb 54f 64f
4:18pm 16 21 mph 1019.6mb 54f 65f
4:12pm 16 24 mph 1019.6mb 54f 64f
4:06pm 16 23 mph 1019.7mb 54f 64f
4:00pm 14 21 mph 1019.8mb 54f 63f
3:36pm 15 21 mph 1020.4mb 54f 62f
3:30pm 14 21 mph 1020.4mb 54f 62f
3:24pm 15 22 mph 1020.7mb 54f 64f
3:18pm 15 23 mph 1020.8mb 54f 62f
3:12pm 14 22 mph 1020.8mb 54f 63f
3:06pm 11 24 mph 1020.9mb 54f 63f
3:00pm 13 22 mph 1021.1mb 54f 62f
2:36pm 17 24 mph 1021.7mb 54f 60f
2:30pm 15 26 mph 1021.9mb 54f 60f
2:24pm 18 25 mph 1022.1mb 54f 59f
2:18pm 17 25 mph 1022.1mb 54f 59f
2:12pm 18 28 mph 1022.3mb 54f 59f
2:06pm 18 25 mph 1022.4mb 54f 58f
2:00pm 21 28 mph 1022.6mb 54f 58f
1:36pm 20 28 mph 1023.1mb 54f 57f
1:30pm 22 26 mph 1023.3mb 54f 57f
1:24pm 21 26 mph 1023.4mb 54f 57f
1:18pm 21 28 mph 1023.6mb 53f 56f
1:12pm 22 28 mph 1023.7mb 53f 56f
1:06pm 21 26 mph 1023.8mb 53f 56f
1:00pm 22 28 mph 1023.9mb 53f 56f
12:36pm 20 29 mph 1024.4mb 53f 55f
12:30pm 22 28 mph 1024.5mb 53f 55f
12:24pm 18 25 mph 1024.5mb 53f 55f
12:18pm 20 28 mph 1024.6mb 53f 54f
12:12pm 21 30 mph 1024.8mb 53f 54f
12:06pm 22 28 mph 1025mb 53f 54f
12:00pm 23 29 mph 1025mb 53f 53f
11:36am 22 28 mph 1025.5mb 53f 52f
11:30am 16 24 mph 1025.6mb 53f 52f
11:24am 18 24 mph 1025.9mb 53f 52f
11:18am 18 23 mph 1026mb 52f 52f
11:12am 17 24 mph 1026.2mb 52f 51f
11:06am 20 24 mph 1026.2mb 52f 51f
11:00am 20 25 mph 1026.4mb 52f 51f
10:36am 18 24 mph 1026.7mb 52f 50f
10:30am 20 24 mph 1026.8mb 52f 49f
10:24am 14 22 mph 1026.9mb 52f 49f
10:18am 15 20 mph 1027mb 52f 49f
10:12am 16 20 mph 1027.1mb 52f 49f
10:06am 14 18 mph 1027.2mb 52f 49f
10:00am 15 18 mph 1027.3mb 52f 48f
9:36am 13 17 mph 1027.8mb 52f 47f
9:30am 11 18 mph 1027.8mb 52f 47f
9:24am 14 17 mph 1027.9mb 52f 46f
9:18am 15 17 mph 1028mb 52f 46f
9:12am 14 17 mph 1028.1mb 52f 46f
9:06am 11 16 mph 1028.1mb 52f 46f
9:00am 10 14 mph 1028.2mb 52f 46f
8:36am 9 13 mph 1028.4mb 53f 46f
8:30am 9 11 mph 1028.4mb 53f 46f
8:24am 10 14 mph 1028.4mb 53f 45f
8:18am 10 13 mph 1028.5mb 52f 45f
8:12am 8 15 mph 1028.5mb 52f 45f
8:06am 10 13 mph 1028.6mb 53f 45f
8:00am 9 13 mph 1028.6mb 53f 45f
7:36am 10 11 mph 1028.7mb 53f 45f
7:30am 10 13 mph 1028.7mb 53f 45f
7:24am 8 11 mph 1028.7mb 53f 45f
7:18am 10 11 mph 1028.7mb 53f 45f
7:12am 10 13 mph 1028.6mb 53f 45f
7:06am 11 13 mph 1028.6mb 53f 45f
7:00am 10 11 mph 1028.7mb 53f 45f
6:30am 9 10 mph 1028.7mb 53f 45f
6:24am 8 9 mph 1028.8mb 53f 45f
6:18am 8 9 mph 1028.9mb 53f 45f
6:12am 8 10 mph 1028.9mb 53f 45f
6:06am 9 10 mph 1028.9mb 53f 45f
6:00am 9 10 mph 1028.9mb 53f 45f
5:36am 6 8 mph 1028.8mb 53f 46f
5:30am 7 8 mph 1028.8mb 53f 46f
5:24am 6
mph
1029mb 53f 46f
5:18am 6 7 mph 1029mb 53f 46f
5:12am 6 7 mph 1029mb 53f 46f
5:06am 6
mph
1029mb 53f 46f
5:00am 6 7 mph 1029mb 53f 46f
4:36am 6 7 mph 1029mb 53f 47f
4:30am 6
mph
1029.1mb 53f 47f
4:24am 6 7 mph 1029.1mb 53f 47f
4:18am 6 7 mph 1029.1mb 53f 47f
4:12am 6 7 mph 1029.1mb 53f 47f
4:06am 6 7 mph - - 47f
4:00am 6 7 mph 1029.1mb 53f 47f
3:36am 6 9 mph 1029.3mb 53f 47f
3:30am 7 9 mph 1029.3mb 53f 47f
3:24am 6 8 mph 1029.3mb 53f 47f
3:18am 7 8 mph 1029.3mb 53f 47f
3:12am 6 7 mph 1029.4mb 53f 47f
3:06am 6 8 mph 1029.4mb 53f 47f
3:00am 7
mph
1029.5mb 53f 48f
2:36am 6 7 mph 1029.7mb 53f 47f
2:30am 6 7 mph 1029.8mb 53f 47f
2:24am 5 6 mph 1029.8mb 53f 48f
2:18am 3 5 mph 1029.8mb 53f 48f
2:12am 5
mph
1029.8mb 53f 48f
2:06am 3 6 mph 1029.8mb 53f 48f
2:00am 5
mph
1029.8mb 53f 48f
1:36am 5
mph
1029.9mb 53f 48f
1:30am 5 6 mph 1030mb 53f 48f
1:24am 5 6 mph 1029.9mb 53f 48f
1:18am 6 7 mph 1030mb 53f 48f
1:12am 6 7 mph 1029.9mb 53f 48f
1:06am 6
mph
1029.8mb 53f 49f
1:00am 5
mph
1029.8mb 53f 49f
12:36am 6 8 mph - - 49f
12:30am 6 7 mph 1029.7mb 53f 49f
12:24am 5 6 mph 1029.7mb 53f 49f
12:18am 6 7 mph 1029.8mb 53f 50f
12:12am 7 9 mph 1029.8mb 53f 49f
12:06am 7 10 mph 1029.8mb 53f 49f
12:00am 7 10 mph 1029.8mb 53f 49f
Thu 04/20 11:36pm 9 10 mph 1029.8mb 53f 50f
11:30pm 7 8 mph 1029.8mb 53f 50f
11:24pm 6 7 mph 1029.8mb 53f 50f
11:18pm 6 8 mph 1029.8mb 53f 50f
11:12pm 5 7 mph 1029.8mb 53f 50f
11:06pm 6 7 mph 1029.7mb 52f 50f
11:00pm 5 8 mph 1029.8mb 52f 50f
10:36pm 8 9 mph 1029.6mb 52f 50f
10:30pm 7 9 mph 1029.5mb 52f 50f
10:24pm 7 9 mph 1029.5mb 52f 50f
10:18pm 8 9 mph 1029.5mb 52f 50f
10:12pm 8 9 mph 1029.5mb 52f 50f
10:06pm 9 10 mph 1029.5mb 52f 50f
10:00pm 8 11 mph 1029.5mb 52f 50f
9:36pm 8 9 mph 1029.1mb 52f 50f
9:30pm 7 10 mph 1029mb 52f 50f
9:24pm 9 10 mph 1028.9mb 52f 50f
9:18pm 9 10 mph 1028.8mb 52f 50f
9:12pm 9 11 mph 1028.7mb 52f 50f
9:06pm 9 11 mph 1028.6mb 53f 50f
9:00pm 10 11 mph 1028.6mb 53f 50f
8:36pm 9 11 mph 1028.3mb 53f 50f
8:30pm 11 14 mph 1028.3mb 53f 50f
8:24pm 11 13 mph 1028.2mb 53f 50f
8:18pm 9 13 mph 1028.1mb 53f 50f
8:12pm 11 14 mph 1028.1mb 53f 50f
8:06pm 9 13 mph 1028mb 53f 50f
8:00pm 10 13 mph 1028mb 53f 50f
7:36pm 7 11 mph 1027.7mb 53f 50f
7:30pm 10 13 mph 1027.7mb 54f 50f
7:24pm 10 13 mph 1027.6mb 53f 50f
7:18pm 11 13 mph 1027.5mb 53f 50f
7:12pm 11 14 mph 1027.5mb 53f 51f
7:06pm 11 14 mph 1027.5mb 53f 50f
7:00pm 10 13 mph 1027.4mb 53f 50f
6:36pm 6 8 mph 1027.4mb 53f 50f
6:30pm 6 9 mph 1027.4mb 53f 50f
6:24pm 7 11 mph 1027.3mb 53f 49f
6:18pm 9 11 mph 1027.4mb 53f 49f